Point Reyes Station, California
Current Conditions -  °F | °C
As of 3:55 PM on Saturday 22 Nov 2014 (Local Time) from KDVO Reporting Station
Clear Clear  
Wind Chill: 66°   Ceiling: Unl
Heat Index: 66°   Visibility: NA
Dew Point: 54°   Wind: 9mph
Humidity: 64%   Direction: 270°W
Pressure: 30.13"   Gusts: NA
Location:  38.07°N, 122.81°W
Report Text: KDVO 222355Z AUTO 27008KT CLR 19/12 A3013 RMK AO2
Loading
Personal Weather Stations






























Interactive Weather Map New forecast layout! Learn more

10-Day Weather Forecast

Advertisements
Track Severe Weather on mobile